Time;durP1;ratioP1;P1;durP2;ratioP2;P2;SDS_P1;SDS_P2;PMS_P1;PMS_P2;Temp;Humidity;BMP_temperature;BMP_pressure;BME280_temperature;BME280_humidity;BME280_pressure;Samples;Min_cycle;Max_cycle;Signal;HPM_P1;HPM_P2
2021/07/26 00:00:46;;;;;;;;;;;24.40;73.60;;;;;;5159871;28;19932;-60
2021/07/26 00:03:19;;;;;;;;;;;24.30;73.60;;;;;;5162132;28;19922;-59
2021/07/26 00:05:54;;;;;;;;;;;24.30;73.60;;;;;;5157173;28;19925;-59
2021/07/26 00:08:38;;;;;;;;;;;24.30;73.60;;;;;;5162384;28;19925;-59
2021/07/26 00:11:11;;;;;;;;;;;24.30;73.50;;;;;;5158244;28;19936;-60
2021/07/26 00:13:43;;;;;;;;;;;24.30;73.50;;;;;;5158020;28;21242;-60
2021/07/26 00:16:16;;;;;;;;;;;24.30;73.50;;;;;;5144540;28;20378;-58
2021/07/26 00:18:48;;;;;;;;;;;24.30;73.50;;;;;;5158415;28;19926;-61
2021/07/26 00:21:20;;;;;;;;;;;24.30;73.50;;;;;;5150755;28;19929;-59
2021/07/26 00:23:52;;;;;;;;;;;24.30;73.50;;;;;;5160818;28;20333;-60
2021/07/26 00:26:25;;;;;;;;;;;24.30;73.40;;;;;;5160956;28;19925;-59
2021/07/26 00:28:57;;;;;;;;;;;24.30;73.50;;;;;;5159824;28;19930;-58
2021/07/26 00:31:29;;;;;;;;;;;24.30;73.50;;;;;;5158383;28;19925;-59
2021/07/26 00:34:19;;;;;;;;;;;24.30;73.50;;;;;;5161044;28;19921;-60
2021/07/26 00:36:54;;;;;;;;;;;24.20;73.50;;;;;;5163558;28;19929;-57
2021/07/26 00:39:28;;;;;;;;;;;24.20;73.50;;;;;;5159815;28;19926;-60
2021/07/26 00:42:01;;;;;;;;;;;24.20;73.50;;;;;;5159739;28;19933;-60
2021/07/26 00:44:34;;;;;;;;;;;24.20;73.50;;;;;;5161849;28;19935;-61
2021/07/26 00:47:06;;;;;;;;;;;24.20;73.50;;;;;;5162767;28;19926;-59
2021/07/26 00:49:38;;;;;;;;;;;24.20;73.50;;;;;;5155065;28;20434;-61
2021/07/26 00:52:10;;;;;;;;;;;24.20;73.50;;;;;;5157906;28;19929;-57
2021/07/26 00:54:43;;;;;;;;;;;24.20;73.50;;;;;;5155150;28;20211;-60
2021/07/26 00:57:15;;;;;;;;;;;24.10;73.50;;;;;;5157247;28;19926;-58
2021/07/26 00:59:51;;;;;;;;;;;24.20;73.50;;;;;;5155712;28;19925;-61
2021/07/26 01:02:23;;;;;;;;;;;24.20;73.60;;;;;;5161728;28;20469;-59
2021/07/26 01:04:56;;;;;;;;;;;24.10;73.60;;;;;;5155215;28;19930;-59
2021/07/26 01:07:29;;;;;;;;;;;24.10;73.50;;;;;;5157537;28;20406;-58
2021/07/26 01:10:01;;;;;;;;;;;24.20;73.50;;;;;;5144668;28;20485;-61
2021/07/26 01:12:33;;;;;;;;;;;24.10;73.50;;;;;;5154676;28;19929;-61
2021/07/26 01:15:06;;;;;;;;;;;24.10;73.40;;;;;;5161689;28;19941;-58
2021/07/26 01:17:52;;;;;;;;;;;24.10;73.40;;;;;;5156315;28;19925;-61
2021/07/26 01:20:24;;;;;;;;;;;24.10;73.40;;;;;;5142560;28;19929;-59
2021/07/26 01:22:57;;;;;;;;;;;24.10;73.40;;;;;;5152868;28;19922;-60
2021/07/26 01:25:29;;;;;;;;;;;24.10;73.50;;;;;;5155068;28;19921;-58
2021/07/26 01:28:01;;;;;;;;;;;24.10;73.40;;;;;;5159110;28;19926;-59
2021/07/26 01:30:34;;;;;;;;;;;24.10;73.50;;;;;;5160333;28;20302;-59
2021/07/26 01:33:07;;;;;;;;;;;24.10;73.50;;;;;;5159972;28;19945;-58
2021/07/26 01:35:40;;;;;;;;;;;24.10;73.50;;;;;;5138866;28;20518;-59
2021/07/26 01:38:12;;;;;;;;;;;24.10;73.50;;;;;;5151300;28;19921;-60
2021/07/26 01:40:50;;;;;;;;;;;24.10;73.50;;;;;;5151910;28;19921;-57
2021/07/26 01:43:25;;;;;;;;;;;24.10;73.50;;;;;;5157638;28;19925;-59
2021/07/26 01:46:02;;;;;;;;;;;24.10;73.60;;;;;;5157600;28;19925;-61
2021/07/26 01:48:41;;;;;;;;;;;24.10;73.50;;;;;;5157268;28;19930;-58
2021/07/26 01:51:15;;;;;;;;;;;24.10;73.50;;;;;;5158319;28;20178;-60
2021/07/26 01:53:47;;;;;;;;;;;24.00;73.50;;;;;;5156569;28;19952;-60
2021/07/26 01:56:20;;;;;;;;;;;24.00;73.50;;;;;;5159604;28;19932;-58
2021/07/26 01:58:52;;;;;;;;;;;24.10;73.50;;;;;;5155183;28;25439;-57
2021/07/26 02:01:24;;;;;;;;;;;24.10;73.60;;;;;;5159967;28;20380;-58
2021/07/26 02:03:57;;;;;;;;;;;24.00;73.50;;;;;;5155264;28;19929;-57
2021/07/26 02:06:29;;;;;;;;;;;24.00;73.40;;;;;;5160528;28;19929;-60
2021/07/26 02:09:01;;;;;;;;;;;24.10;73.40;;;;;;5155500;28;19948;-58
2021/07/26 02:11:33;;;;;;;;;;;24.00;73.40;;;;;;5140646;28;19929;-61
2021/07/26 02:14:09;;;;;;;;;;;24.10;73.40;;;;;;5159146;28;19929;-59
2021/07/26 02:16:42;;;;;;;;;;;24.00;73.30;;;;;;5162897;28;19988;-60
2021/07/26 02:19:15;;;;;;;;;;;24.00;73.30;;;;;;5157090;28;19929;-59
2021/07/26 02:21:47;;;;;;;;;;;24.00;73.30;;;;;;5160736;28;19925;-57
2021/07/26 02:24:19;;;;;;;;;;;24.00;73.30;;;;;;5152079;28;20417;-58
2021/07/26 02:26:52;;;;;;;;;;;24.00;73.30;;;;;;5158667;28;19922;-58
2021/07/26 02:29:24;;;;;;;;;;;24.00;73.30;;;;;;5134911;28;20396;-58
2021/07/26 02:31:56;;;;;;;;;;;24.00;73.30;;;;;;5135885;28;19930;-55
2021/07/26 02:34:28;;;;;;;;;;;24.00;73.30;;;;;;5157328;28;20382;-57
2021/07/26 02:37:01;;;;;;;;;;;24.00;73.30;;;;;;5155465;28;20422;-57
2021/07/26 02:39:33;;;;;;;;;;;24.00;73.30;;;;;;5136682;28;19930;-58
2021/07/26 02:42:05;;;;;;;;;;;24.00;73.30;;;;;;5158553;28;19925;-59
2021/07/26 02:44:38;;;;;;;;;;;24.00;73.30;;;;;;5157023;28;19952;-61
2021/07/26 02:47:10;;;;;;;;;;;24.00;73.20;;;;;;5153460;28;20309;-59
2021/07/26 02:49:42;;;;;;;;;;;24.00;73.20;;;;;;5157678;28;20409;-58
2021/07/26 02:52:15;;;;;;;;;;;23.90;73.20;;;;;;5162025;28;20501;-56
2021/07/26 02:54:47;;;;;;;;;;;24.00;73.20;;;;;;5157932;28;20210;-61
2021/07/26 02:57:19;;;;;;;;;;;24.00;73.20;;;;;;5155334;28;20686;-59
2021/07/26 02:59:51;;;;;;;;;;;23.90;73.10;;;;;;5155276;28;19925;-59
2021/07/26 03:02:24;;;;;;;;;;;24.00;73.20;;;;;;5158487;28;19925;-60
2021/07/26 03:04:58;;;;;;;;;;;24.00;73.20;;;;;;5159384;28;20365;-60
2021/07/26 03:07:31;;;;;;;;;;;24.00;73.20;;;;;;5156939;28;19929;-57
2021/07/26 03:10:04;;;;;;;;;;;23.90;73.10;;;;;;5161635;28;19932;-60
2021/07/26 03:12:36;;;;;;;;;;;23.90;73.10;;;;;;5160299;28;19936;-60
2021/07/26 03:15:09;;;;;;;;;;;23.90;73.00;;;;;;5163510;28;20205;-59
2021/07/26 03:17:41;;;;;;;;;;;23.90;73.00;;;;;;5162892;28;19928;-60
2021/07/26 03:20:13;;;;;;;;;;;23.90;73.00;;;;;;5164536;28;19932;-59
2021/07/26 03:22:51;;;;;;;;;;;23.90;73.10;;;;;;5158537;28;20384;-60
2021/07/26 03:25:25;;;;;;;;;;;23.90;73.00;;;;;;5161089;28;19997;-60
2021/07/26 03:27:58;;;;;;;;;;;23.90;73.00;;;;;;5147522;28;20461;-58
2021/07/26 03:30:30;;;;;;;;;;;23.90;73.00;;;;;;5147116;28;19933;-58
2021/07/26 03:33:02;;;;;;;;;;;23.90;73.00;;;;;;5163781;28;19929;-58
2021/07/26 03:35:34;;;;;;;;;;;23.90;73.00;;;;;;5158063;28;20977;-58
2021/07/26 03:38:07;;;;;;;;;;;23.90;72.90;;;;;;5158742;28;20405;-58
2021/07/26 03:40:39;;;;;;;;;;;23.90;72.90;;;;;;5160544;28;20310;-60
2021/07/26 03:43:11;;;;;;;;;;;23.90;72.90;;;;;;5142300;28;19925;-60
2021/07/26 03:45:44;;;;;;;;;;;23.90;72.90;;;;;;5144747;28;19926;-60
2021/07/26 03:48:16;;;;;;;;;;;23.90;73.60;;;;;;5161378;28;19943;-58
2021/07/26 03:50:48;;;;;;;;;;;23.90;73.00;;;;;;5159693;28;19925;-58
2021/07/26 03:53:21;;;;;;;;;;;23.90;73.00;;;;;;5146094;28;19926;-60
2021/07/26 03:55:53;;;;;;;;;;;23.90;73.00;;;;;;5159775;28;19926;-58
2021/07/26 03:58:25;;;;;;;;;;;23.80;73.00;;;;;;5156035;28;21046;-60
2021/07/26 04:00:57;;;;;;;;;;;23.90;73.00;;;;;;5158025;28;19929;-58
2021/07/26 04:03:31;;;;;;;;;;;23.90;73.00;;;;;;5144099;28;19928;-60
2021/07/26 04:06:12;;;;;;;;;;;23.90;73.00;;;;;;5163964;28;20369;-60
2021/07/26 04:08:48;;;;;;;;;;;23.80;73.00;;;;;;5163126;28;19929;-61
2021/07/26 04:14:26;;;;;;;;;;;23.80;73.00;;;;;;5135859;28;20397;-60
2021/07/26 04:16:58;;;;;;;;;;;23.90;73.00;;;;;;5154290;28;19932;-61
2021/07/26 04:19:31;;;;;;;;;;;23.90;73.00;;;;;;5155743;28;19933;-55
2021/07/26 04:22:04;;;;;;;;;;;23.90;73.10;;;;;;5134726;28;19921;-60
2021/07/26 04:24:36;;;;;;;;;;;23.90;73.10;;;;;;5152854;28;20562;-59
2021/07/26 04:27:08;;;;;;;;;;;23.90;73.20;;;;;;5134225;28;19925;-60
2021/07/26 04:29:59;;;;;;;;;;;23.90;73.20;;;;;;5160481;28;19926;-59
2021/07/26 04:32:41;;;;;;;;;;;23.90;73.20;;;;;;5156936;28;19921;-59
2021/07/26 04:35:16;;;;;;;;;;;23.90;73.30;;;;;;5133969;28;19933;-58
2021/07/26 04:37:48;;;;;;;;;;;23.90;73.20;;;;;;5150154;28;19925;-59
2021/07/26 04:40:20;;;;;;;;;;;24.00;73.30;;;;;;5139966;28;20638;-57
2021/07/26 04:42:53;;;;;;;;;;;23.90;73.30;;;;;;5159858;28;20176;-58
2021/07/26 04:45:26;;;;;;;;;;;24.00;73.40;;;;;;5142075;28;19933;-60
2021/07/26 04:47:58;;;;;;;;;;;23.90;73.30;;;;;;5154223;28;19937;-59
2021/07/26 04:50:30;;;;;;;;;;;24.00;73.40;;;;;;5153902;28;20221;-59
2021/07/26 04:53:02;;;;;;;;;;;24.00;73.40;;;;;;5153900;28;20574;-60
2021/07/26 04:55:34;;;;;;;;;;;24.00;73.40;;;;;;5154990;28;19936;-58
2021/07/26 04:58:25;;;;;;;;;;;24.00;73.40;;;;;;5143277;28;21084;-60
2021/07/26 05:00:57;;;;;;;;;;;24.00;73.50;;;;;;5146877;28;19932;-57
2021/07/26 05:03:30;;;;;;;;;;;24.00;73.40;;;;;;5152998;28;19928;-58
2021/07/26 05:06:04;;;;;;;;;;;24.00;73.50;;;;;;5152040;28;19925;-59
2021/07/26 05:08:37;;;;;;;;;;;24.00;73.50;;;;;;5136645;28;20008;-59
2021/07/26 05:11:09;;;;;;;;;;;24.00;73.50;;;;;;5150787;28;19937;-57
2021/07/26 05:13:41;;;;;;;;;;;24.00;73.80;;;;;;5128373;28;19929;-58
2021/07/26 05:16:14;;;;;;;;;;;24.00;73.70;;;;;;5122331;28;19926;-60
2021/07/26 05:18:46;;;;;;;;;;;24.00;73.60;;;;;;5112643;28;21102;-56
2021/07/26 05:21:20;;;;;;;;;;;24.00;73.70;;;;;;5136954;28;20409;-58
2021/07/26 05:23:52;;;;;;;;;;;24.00;73.60;;;;;;5118796;28;19928;-61
2021/07/26 05:26:25;;;;;;;;;;;24.00;73.60;;;;;;5137104;28;19952;-58
2021/07/26 05:28:57;;;;;;;;;;;24.00;73.50;;;;;;5120008;28;19960;-59
2021/07/26 05:31:29;;;;;;;;;;;24.00;73.50;;;;;;5131174;28;19940;-57
2021/07/26 05:34:02;;;;;;;;;;;24.00;73.70;;;;;;5131841;28;19929;-55
2021/07/26 05:36:34;;;;;;;;;;;24.00;73.90;;;;;;5124139;28;20450;-59
2021/07/26 05:39:06;;;;;;;;;;;24.00;74.10;;;;;;5135661;28;19936;-60
2021/07/26 05:41:38;;;;;;;;;;;24.00;74.00;;;;;;5100096;28;19921;-58
2021/07/26 05:44:11;;;;;;;;;;;24.00;74.00;;;;;;5138667;28;20475;-59
2021/07/26 05:46:44;;;;;;;;;;;24.00;74.00;;;;;;5109504;28;19935;-60
2021/07/26 05:49:16;;;;;;;;;;;24.10;74.10;;;;;;5117409;28;19936;-61
2021/07/26 05:51:48;;;;;;;;;;;24.10;74.10;;;;;;5138602;28;19930;-58
2021/07/26 05:54:21;;;;;;;;;;;24.10;74.00;;;;;;5137344;28;20474;-59
2021/07/26 05:56:53;;;;;;;;;;;24.10;74.00;;;;;;5136449;28;20420;-58
2021/07/26 05:59:27;;;;;;;;;;;24.10;73.90;;;;;;5125882;28;19964;-58
2021/07/26 06:01:59;;;;;;;;;;;24.10;73.90;;;;;;5140423;28;19945;-58
2021/07/26 06:04:32;;;;;;;;;;;24.10;73.80;;;;;;5119411;28;19937;-57
2021/07/26 06:07:04;;;;;;;;;;;24.10;73.80;;;;;;5130766;28;19930;-56
2021/07/26 06:09:36;;;;;;;;;;;24.20;74.00;;;;;;5125309;28;19929;-58
2021/07/26 06:12:09;;;;;;;;;;;24.10;74.10;;;;;;5148121;28;19929;-61
2021/07/26 06:14:41;;;;;;;;;;;24.10;74.10;;;;;;5145393;28;19929;-57
2021/07/26 06:17:17;;;;;;;;;;;24.20;74.10;;;;;;5146917;28;20992;-60
2021/07/26 06:19:49;;;;;;;;;;;24.20;74.20;;;;;;5142058;28;20558;-60
2021/07/26 06:22:21;;;;;;;;;;;24.20;74.20;;;;;;5127230;28;19926;-59
2021/07/26 06:24:54;;;;;;;;;;;24.20;74.20;;;;;;5132021;28;19929;-59
2021/07/26 06:27:26;;;;;;;;;;;24.20;74.10;;;;;;5151969;28;19926;-60
2021/07/26 06:29:58;;;;;;;;;;;24.20;74.10;;;;;;5143307;28;19933;-60
2021/07/26 06:32:32;;;;;;;;;;;24.20;74.10;;;;;;5133791;28;19926;-60
2021/07/26 06:35:05;;;;;;;;;;;24.20;74.10;;;;;;5148636;28;19932;-57
2021/07/26 06:37:37;;;;;;;;;;;24.20;74.10;;;;;;5151068;28;19928;-55
2021/07/26 06:40:10;;;;;;;;;;;24.20;74.10;;;;;;5150573;28;19922;-58
2021/07/26 06:42:42;;;;;;;;;;;24.20;74.10;;;;;;5152889;28;20993;-56
2021/07/26 06:45:15;;;;;;;;;;;24.20;74.00;;;;;;5113657;28;20726;-60
2021/07/26 06:47:49;;;;;;;;;;;24.30;74.10;;;;;;5142886;28;20384;-59
2021/07/26 06:50:21;;;;;;;;;;;24.30;74.10;;;;;;5125405;28;19929;-58
2021/07/26 06:52:54;;;;;;;;;;;24.30;74.10;;;;;;5142857;28;19925;-57
2021/07/26 06:55:26;;;;;;;;;;;24.30;74.00;;;;;;5130661;28;19929;-60
2021/07/26 06:57:58;;;;;;;;;;;24.30;73.90;;;;;;5145049;28;19932;-60
2021/07/26 07:00:31;;;;;;;;;;;24.30;74.00;;;;;;5129194;28;19930;-59
2021/07/26 07:03:03;;;;;;;;;;;24.30;74.00;;;;;;5156664;28;20384;-58
2021/07/26 07:05:37;;;;;;;;;;;24.30;74.00;;;;;;5159555;28;19929;-60
2021/07/26 07:08:09;;;;;;;;;;;24.30;74.00;;;;;;5147530;28;19925;-61
2021/07/26 07:10:41;;;;;;;;;;;24.30;74.00;;;;;;5133867;28;20188;-60
2021/07/26 07:13:13;;;;;;;;;;;24.30;74.00;;;;;;5130814;28;19936;-59
2021/07/26 07:15:46;;;;;;;;;;;24.30;74.00;;;;;;5143858;28;19937;-58
2021/07/26 07:18:18;;;;;;;;;;;24.30;74.60;;;;;;5135581;28;19929;-60
2021/07/26 07:20:50;;;;;;;;;;;24.30;74.00;;;;;;5118243;28;21096;-56
2021/07/26 07:23:23;;;;;;;;;;;24.30;74.10;;;;;;5128595;28;19921;-58
2021/07/26 07:25:55;;;;;;;;;;;24.30;74.00;;;;;;5141127;28;19926;-56
2021/07/26 07:28:27;;;;;;;;;;;24.30;74.00;;;;;;5150980;28;20469;-56
2021/07/26 07:30:59;;;;;;;;;;;24.30;74.00;;;;;;5120645;28;19921;-57
2021/07/26 07:33:32;;;;;;;;;;;24.30;74.00;;;;;;5150647;28;19933;-61
2021/07/26 07:36:05;;;;;;;;;;;24.30;74.00;;;;;;5143391;28;19933;-57
2021/07/26 07:38:37;;;;;;;;;;;24.40;74.00;;;;;;5155980;28;19929;-56
2021/07/26 07:41:10;;;;;;;;;;;24.40;74.00;;;;;;5146025;28;20424;-56
2021/07/26 07:43:42;;;;;;;;;;;24.40;74.00;;;;;;5125364;28;19929;-54
2021/07/26 07:46:17;;;;;;;;;;;24.40;74.00;;;;;;5141480;28;19932;-58
2021/07/26 07:48:49;;;;;;;;;;;24.40;74.00;;;;;;5161819;28;19929;-56
2021/07/26 07:51:22;;;;;;;;;;;24.40;73.90;;;;;;5145130;28;19937;-57
2021/07/26 07:53:56;;;;;;;;;;;24.40;73.90;;;;;;5141673;28;20864;-55
2021/07/26 07:56:28;;;;;;;;;;;24.40;74.00;;;;;;5152899;28;23070;-61
2021/07/26 07:59:00;;;;;;;;;;;24.40;73.90;;;;;;5154943;28;19922;-57
2021/07/26 08:01:36;;;;;;;;;;;24.40;73.90;;;;;;5154993;28;20586;-58
2021/07/26 08:04:08;;;;;;;;;;;24.40;74.60;;;;;;5152363;28;20302;-59
2021/07/26 08:06:43;;;;;;;;;;;24.40;73.90;;;;;;5152669;28;19952;-54
2021/07/26 08:09:16;;;;;;;;;;;24.40;73.90;;;;;;5153189;28;19928;-59
2021/07/26 08:11:49;;;;;;;;;;;24.40;73.90;;;;;;5150602;28;19930;-57
2021/07/26 08:14:21;;;;;;;;;;;24.40;73.90;;;;;;5148662;28;19921;-59
2021/07/26 08:16:53;;;;;;;;;;;24.40;73.90;;;;;;5144480;28;20337;-60
2021/07/26 08:19:25;;;;;;;;;;;24.40;73.90;;;;;;5151740;28;20367;-58
2021/07/26 08:21:58;;;;;;;;;;;24.40;73.80;;;;;;5151097;28;20853;-59
2021/07/26 08:24:30;;;;;;;;;;;24.40;73.80;;;;;;5152430;28;19972;-59
2021/07/26 08:27:03;;;;;;;;;;;24.40;73.80;;;;;;5155364;28;19921;-59
2021/07/26 08:29:35;;;;;;;;;;;24.40;73.80;;;;;;5161509;28;20318;-58
2021/07/26 08:32:07;;;;;;;;;;;24.40;73.70;;;;;;5159934;28;20410;-59
2021/07/26 08:34:39;;;;;;;;;;;24.40;73.70;;;;;;5159002;28;20012;-56
2021/07/26 08:37:12;;;;;;;;;;;24.50;73.70;;;;;;5155268;28;19933;-58
2021/07/26 08:39:44;;;;;;;;;;;24.50;73.70;;;;;;5160020;28;20609;-57
2021/07/26 08:42:16;;;;;;;;;;;24.50;73.70;;;;;;5159242;28;20429;-57
2021/07/26 08:44:48;;;;;;;;;;;24.50;73.70;;;;;;5159083;28;19929;-59
2021/07/26 08:47:21;;;;;;;;;;;24.50;73.70;;;;;;5141253;28;20309;-59
2021/07/26 08:49:58;;;;;;;;;;;24.50;73.60;;;;;;5159921;28;20314;-58
2021/07/26 08:52:36;;;;;;;;;;;24.50;73.60;;;;;;5150762;28;19926;-57
2021/07/26 08:55:09;;;;;;;;;;;24.50;73.60;;;;;;5153425;28;20314;-55
2021/07/26 08:57:43;;;;;;;;;;;24.50;73.50;;;;;;5153821;28;19929;-56
2021/07/26 09:00:16;;;;;;;;;;;24.50;73.50;;;;;;5159365;28;19925;-59
2021/07/26 09:02:53;;;;;;;;;;;24.50;73.50;;;;;;5158729;28;20503;-59
2021/07/26 09:05:25;;;;;;;;;;;24.50;73.50;;;;;;5156565;28;20704;-59
2021/07/26 09:07:59;;;;;;;;;;;24.50;73.50;;;;;;5154354;28;19921;-59
2021/07/26 09:10:35;;;;;;;;;;;24.50;73.50;;;;;;5157232;28;19925;-59
2021/07/26 09:13:10;;;;;;;;;;;24.50;73.50;;;;;;5140471;28;20378;-59
2021/07/26 09:15:43;;;;;;;;;;;24.50;73.50;;;;;;5164170;28;19925;-56
2021/07/26 09:18:17;;;;;;;;;;;24.50;73.40;;;;;;5157674;28;19926;-56
2021/07/26 09:20:51;;;;;;;;;;;24.60;73.50;;;;;;5153558;28;19925;-59
2021/07/26 09:23:23;;;;;;;;;;;24.60;73.40;;;;;;5145661;28;19929;-59
2021/07/26 09:25:55;;;;;;;;;;;24.60;73.40;;;;;;5148109;28;20949;-55
2021/07/26 09:28:31;;;;;;;;;;;24.60;73.40;;;;;;5135037;28;19936;-57
2021/07/26 09:31:04;;;;;;;;;;;24.50;73.30;;;;;;5154674;28;19930;-60
2021/07/26 09:33:36;;;;;;;;;;;24.60;73.40;;;;;;5151459;28;19934;-54
2021/07/26 09:36:12;;;;;;;;;;;24.60;73.30;;;;;;5140457;28;19922;-60
2021/07/26 09:38:45;;;;;;;;;;;24.60;73.40;;;;;;5153589;28;19925;-58
2021/07/26 09:41:17;;;;;;;;;;;24.60;73.30;;;;;;5118607;28;19933;-58
2021/07/26 09:44:03;;;;;;;;;;;24.60;73.30;;;;;;5153654;28;20556;-59
2021/07/26 09:46:38;;;;;;;;;;;24.60;73.20;;;;;;5154631;28;20313;-59
2021/07/26 09:49:12;;;;;;;;;;;24.60;73.20;;;;;;5153384;28;19937;-56
2021/07/26 09:52:03;;;;;;;;;;;24.60;73.30;;;;;;5145934;28;19933;-59
2021/07/26 09:54:43;;;;;;;;;;;24.60;73.30;;;;;;5147862;28;19921;-58
2021/07/26 09:57:20;;;;;;;;;;;24.60;73.30;;;;;;5137250;28;19928;-57
2021/07/26 09:59:52;;;;;;;;;;;24.60;73.30;;;;;;5142276;28;20289;-60
2021/07/26 10:02:24;;;;;;;;;;;24.60;73.30;;;;;;5154629;28;19928;-59
2021/07/26 10:04:57;;;;;;;;;;;24.60;73.30;;;;;;5152489;28;19929;-58
2021/07/26 10:07:30;;;;;;;;;;;24.60;73.30;;;;;;5139425;28;19934;-57
2021/07/26 10:10:02;;;;;;;;;;;24.60;73.90;;;;;;5155755;28;19937;-60
2021/07/26 10:12:36;;;;;;;;;;;24.60;73.20;;;;;;5153139;28;19936;-57
2021/07/26 10:15:09;;;;;;;;;;;24.60;73.30;;;;;;5151160;28;19922;-60
2021/07/26 10:17:41;;;;;;;;;;;24.60;73.30;;;;;;5151377;28;20409;-59
2021/07/26 10:20:21;;;;;;;;;;;24.70;73.30;;;;;;5151225;28;19936;-60
2021/07/26 10:23:13;;;;;;;;;;;24.70;73.30;;;;;;5160320;28;19932;-55
2021/07/26 10:25:54;;;;;;;;;;;24.60;73.20;;;;;;5112934;28;19926;-58
2021/07/26 10:28:27;;;;;;;;;;;24.70;73.20;;;;;;5144899;28;20313;-59
2021/07/26 10:31:00;;;;;;;;;;;24.60;73.10;;;;;;5155325;28;19925;-57
2021/07/26 10:33:45;;;;;;;;;;;24.70;73.20;;;;;;5161849;28;19932;-57
2021/07/26 10:36:37;;;;;;;;;;;24.70;73.20;;;;;;5164809;28;19936;-59
2021/07/26 10:39:11;;;;;;;;;;;24.70;73.20;;;;;;5159377;28;19929;-57
2021/07/26 10:41:43;;;;;;;;;;;24.70;73.20;;;;;;5160300;28;19929;-58
2021/07/26 10:44:15;;;;;;;;;;;24.70;73.10;;;;;;5160223;28;19930;-57
2021/07/26 10:46:53;;;;;;;;;;;24.70;73.10;;;;;;5162834;28;20008;-58
2021/07/26 10:49:42;;;;;;;;;;;24.70;73.10;;;;;;5163646;28;19928;-64
2021/07/26 10:52:25;;;;;;;;;;;24.70;73.10;;;;;;5163079;28;19929;-57
2021/07/26 10:55:00;;;;;;;;;;;24.70;73.10;;;;;;5169021;28;19937;-58
2021/07/26 10:57:33;;;;;;;;;;;24.70;73.10;;;;;;5163596;28;20644;-60
2021/07/26 11:00:12;;;;;;;;;;;24.70;73.10;;;;;;5158505;28;19936;-60
2021/07/26 11:02:46;;;;;;;;;;;24.80;73.10;;;;;;5161781;28;19937;-56
2021/07/26 11:05:27;;;;;;;;;;;24.70;73.10;;;;;;5160218;28;19925;-60
2021/07/26 11:08:23;;;;;;;;;;;24.70;73.10;;;;;;5159257;28;20304;-59
2021/07/26 11:10:57;;;;;;;;;;;24.70;73.10;;;;;;5160592;28;20310;-60
2021/07/26 11:13:45;;;;;;;;;;;24.70;73.00;;;;;;5157236;28;19925;-58
2021/07/26 11:16:36;;;;;;;;;;;24.70;73.00;;;;;;5159665;28;19925;-59
2021/07/26 11:19:27;;;;;;;;;;;24.80;73.10;;;;;;5160339;28;19930;-59
2021/07/26 11:22:03;;;;;;;;;;;24.80;73.10;;;;;;5165432;28;19930;-56
2021/07/26 11:24:44;;;;;;;;;;;24.80;73.00;;;;;;5158602;28;19925;-60
2021/07/26 11:27:37;;;;;;;;;;;24.80;73.00;;;;;;5154336;28;20033;-57
2021/07/26 11:30:11;;;;;;;;;;;24.80;73.00;;;;;;5141941;28;19925;-60
2021/07/26 11:32:50;;;;;;;;;;;24.80;73.00;;;;;;5140223;28;19926;-55
2021/07/26 11:35:30;;;;;;;;;;;24.80;73.00;;;;;;5162798;28;19932;-59
2021/07/26 11:38:05;;;;;;;;;;;24.80;72.90;;;;;;5162342;28;20176;-58
2021/07/26 11:40:38;;;;;;;;;;;24.80;72.90;;;;;;5162332;28;20409;-59
2021/07/26 11:43:10;;;;;;;;;;;24.80;72.90;;;;;;5158460;28;19929;-60
2021/07/26 11:45:47;;;;;;;;;;;24.80;73.00;;;;;;5158325;28;19929;-59
2021/07/26 11:48:24;;;;;;;;;;;24.80;72.90;;;;;;5134690;28;20575;-59
2021/07/26 11:50:56;;;;;;;;;;;24.80;73.10;;;;;;5160649;28;19922;-60
2021/07/26 11:53:30;;;;;;;;;;;24.80;73.10;;;;;;5123686;28;20658;-64
2021/07/26 11:56:17;;;;;;;;;;;24.80;73.40;;;;;;5142080;28;19930;-64
2021/07/26 11:58:49;;;;;;;;;;;24.90;73.60;;;;;;5142161;28;19922;-64
2021/07/26 12:01:21;;;;;;;;;;;24.90;73.50;;;;;;5140795;28;19929;-62
2021/07/26 12:03:54;;;;;;;;;;;25.00;73.40;;;;;;5146778;28;19929;-59
2021/07/26 12:06:28;;;;;;;;;;;25.10;73.30;;;;;;5143639;28;19937;-62
2021/07/26 12:09:00;;;;;;;;;;;25.10;73.10;;;;;;5147179;28;19930;-64
2021/07/26 12:11:33;;;;;;;;;;;25.20;73.00;;;;;;5144613;28;20437;-62
2021/07/26 12:14:21;;;;;;;;;;;25.20;72.90;;;;;;5143239;28;19936;-63
2021/07/26 12:16:59;;;;;;;;;;;25.30;72.80;;;;;;5140719;28;20489;-63
2021/07/26 12:19:33;;;;;;;;;;;25.40;72.70;;;;;;5141679;28;19933;-64
2021/07/26 12:22:22;;;;;;;;;;;25.50;72.50;;;;;;5143386;28;19929;-64
2021/07/26 12:25:18;;;;;;;;;;;25.50;72.30;;;;;;5136928;28;20433;-64
2021/07/26 12:27:59;;;;;;;;;;;25.70;72.10;;;;;;5130628;28;20322;-62
2021/07/26 12:30:35;;;;;;;;;;;25.70;71.90;;;;;;5136940;28;19930;-63
2021/07/26 12:33:09;;;;;;;;;;;25.80;71.80;;;;;;5141461;28;20471;-62
2021/07/26 12:35:41;;;;;;;;;;;25.80;71.50;;;;;;5127481;28;19933;-64
2021/07/26 12:38:13;;;;;;;;;;;25.90;71.30;;;;;;5144655;28;19925;-60
2021/07/26 12:40:49;;;;;;;;;;;26.00;71.20;;;;;;5135673;28;19937;-63
2021/07/26 12:43:26;;;;;;;;;;;26.10;71.10;;;;;;5119710;28;19933;-63
2021/07/26 12:45:58;;;;;;;;;;;26.20;70.90;;;;;;5135714;28;19932;-64
2021/07/26 12:48:32;;;;;;;;;;;26.20;70.70;;;;;;5139283;28;19932;-66
2021/07/26 12:51:05;;;;;;;;;;;26.30;70.60;;;;;;5122517;28;20382;-60
2021/07/26 12:53:49;;;;;;;;;;;26.30;70.40;;;;;;5120801;28;20334;-63
2021/07/26 12:56:21;;;;;;;;;;;26.30;70.30;;;;;;5145976;28;19933;-62
2021/07/26 12:58:53;;;;;;;;;;;26.40;70.20;;;;;;5140911;28;19930;-62
2021/07/26 13:01:25;;;;;;;;;;;26.50;70.10;;;;;;5138775;28;19930;-63
2021/07/26 13:03:58;;;;;;;;;;;26.50;70.00;;;;;;5120440;28;19937;-63
2021/07/26 13:06:30;;;;;;;;;;;26.50;69.90;;;;;;5138315;28;19929;-63
2021/07/26 13:09:03;;;;;;;;;;;26.60;69.80;;;;;;5139263;28;19980;-64
2021/07/26 13:11:35;;;;;;;;;;;26.60;69.70;;;;;;5136374;28;19925;-64
2021/07/26 13:14:07;;;;;;;;;;;26.60;69.60;;;;;;5140385;28;20298;-63
2021/07/26 13:16:40;;;;;;;;;;;26.70;69.50;;;;;;5116194;28;19929;-60
2021/07/26 13:19:12;;;;;;;;;;;26.70;69.40;;;;;;5128628;28;19952;-61
2021/07/26 13:21:45;;;;;;;;;;;26.70;69.30;;;;;;5119539;28;19925;-69
2021/07/26 13:24:18;;;;;;;;;;;26.80;69.30;;;;;;5108889;28;25573;-63
2021/07/26 13:26:50;;;;;;;;;;;26.80;69.10;;;;;;5121789;28;21384;-62
2021/07/26 13:29:22;;;;;;;;;;;26.80;68.90;;;;;;5118164;28;19991;-64
2021/07/26 13:32:14;;;;;;;;;;;26.80;69.00;;;;;;5124440;28;20797;-63
2021/07/26 13:34:47;;;;;;;;;;;26.90;68.90;;;;;;5115299;28;19940;-64
2021/07/26 13:37:19;;;;;;;;;;;26.90;68.80;;;;;;5128386;28;20309;-63
2021/07/26 13:39:51;;;;;;;;;;;26.90;68.70;;;;;;5119788;28;20464;-63
2021/07/26 13:42:24;;;;;;;;;;;26.90;68.70;;;;;;5124368;28;20767;-64
2021/07/26 13:44:56;;;;;;;;;;;27.00;68.60;;;;;;5133975;28;19936;-64
2021/07/26 13:47:29;;;;;;;;;;;27.00;68.60;;;;;;5110599;28;19929;-64
2021/07/26 13:50:02;;;;;;;;;;;27.00;68.60;;;;;;5128530;28;19933;-64
2021/07/26 13:52:34;;;;;;;;;;;27.10;68.60;;;;;;5115301;28;20449;-63
2021/07/26 13:55:07;;;;;;;;;;;27.10;68.30;;;;;;5131895;28;19929;-63
2021/07/26 13:57:40;;;;;;;;;;;27.10;68.20;;;;;;5140321;28;19940;-64
2021/07/26 14:00:17;;;;;;;;;;;27.10;68.10;;;;;;5114608;28;19936;-64
2021/07/26 14:02:49;;;;;;;;;;;27.10;68.10;;;;;;5087846;28;20280;-65
2021/07/26 14:05:22;;;;;;;;;;;27.10;68.00;;;;;;5118552;28;20330;-66
2021/07/26 14:07:54;;;;;;;;;;;27.10;67.90;;;;;;5123117;28;19926;-64
2021/07/26 14:10:26;;;;;;;;;;;27.10;67.90;;;;;;5104833;28;20330;-64
2021/07/26 14:13:02;;;;;;;;;;;27.10;67.70;;;;;;5123164;28;19926;-65
2021/07/26 14:15:35;;;;;;;;;;;27.10;67.90;;;;;;5123182;28;20402;-65
2021/07/26 14:18:11;;;;;;;;;;;27.10;67.90;;;;;;5121132;28;19925;-66
2021/07/26 14:20:43;;;;;;;;;;;27.10;67.80;;;;;;5123312;28;19926;-64
2021/07/26 14:23:15;;;;;;;;;;;27.10;67.70;;;;;;5087503;28;19933;-65
2021/07/26 14:25:47;;;;;;;;;;;27.10;67.90;;;;;;5120303;28;20468;-64
2021/07/26 14:28:20;;;;;;;;;;;27.10;67.90;;;;;;5128434;28;20493;-65
2021/07/26 14:30:52;;;;;;;;;;;27.10;67.90;;;;;;5128385;28;19933;-64
2021/07/26 14:33:26;;;;;;;;;;;27.10;67.90;;;;;;5131311;28;19930;-65
2021/07/26 14:35:58;;;;;;;;;;;27.10;68.00;;;;;;5105196;28;20492;-65
2021/07/26 14:38:31;;;;;;;;;;;27.10;68.00;;;;;;5126496;28;19933;-64
2021/07/26 14:41:04;;;;;;;;;;;27.10;68.10;;;;;;5107720;28;19929;-65
2021/07/26 14:43:36;;;;;;;;;;;27.10;68.10;;;;;;5120210;28;19926;-65
2021/07/26 14:46:08;;;;;;;;;;;27.10;68.10;;;;;;5113260;28;19948;-66
2021/07/26 14:48:41;;;;;;;;;;;27.10;68.20;;;;;;5122006;28;19932;-65
2021/07/26 14:51:14;;;;;;;;;;;27.10;68.20;;;;;;5116092;28;20592;-64
2021/07/26 14:53:46;;;;;;;;;;;27.20;68.30;;;;;;5118232;28;19925;-65
2021/07/26 14:56:19;;;;;;;;;;;27.20;68.70;;;;;;5117209;28;20330;-65
2021/07/26 14:58:51;;;;;;;;;;;27.20;68.40;;;;;;5118545;28;20522;-67